Time;durP1;ratioP1;P1;durP2;ratioP2;P2;SDS_P1;SDS_P2;PMS_P1;PMS_P2;Temp;Humidity;BMP_temperature;BMP_pressure;BME280_temperature;BME280_humidity;BME280_pressure;Samples;Min_cycle;Max_cycle;Signal;HPM_P1;HPM_P2
2021/06/23 00:01:37;;;;;;;11.30;10.20;;;18.70;99.90;;;;;;5093451;28;20416;-54
2021/06/23 00:04:04;;;;;;;11.67;10.47;;;18.60;99.90;;;;;;5097293;28;20651;-56
2021/06/23 00:06:31;;;;;;;12.00;10.90;;;18.70;99.90;;;;;;5090105;28;20417;-57
2021/06/23 00:08:58;;;;;;;11.07;10.13;;;18.80;99.90;;;;;;5098567;28;20445;-55
2021/06/23 00:11:30;;;;;;;13.30;12.00;;;18.90;99.90;;;;;;5092329;28;20494;-58
2021/06/23 00:13:57;;;;;;;13.20;11.80;;;18.90;99.90;;;;;;5092633;28;20444;-57
2021/06/23 00:16:24;;;;;;;11.37;10.17;;;19.00;99.90;;;;;;5095673;28;20428;-54
2021/06/23 00:18:51;;;;;;;10.90;9.83;;;19.00;99.90;;;;;;5097130;28;20501;-55
2021/06/23 00:21:18;;;;;;;14.20;10.73;;;19.00;99.90;;;;;;5096252;28;20417;-56
2021/06/23 00:23:45;;;;;;;22.70;14.03;;;20.20;99.90;;;;;;5097188;28;20473;-55
2021/06/23 00:26:12;;;;;;;12.67;11.50;;;18.90;99.90;;;;;;5093465;28;20474;-57
2021/06/23 00:28:39;;;;;;;13.37;10.63;;;18.90;99.90;;;;;;5095519;28;20465;-57
2021/06/23 00:31:06;;;;;;;10.50;9.53;;;18.80;99.90;;;;;;5096649;28;20408;-55
2021/06/23 00:33:35;;;;;;;10.97;9.40;;;18.80;99.90;;;;;;5096414;28;20458;-55
2021/06/23 00:36:02;;;;;;;15.20;12.63;;;18.80;99.90;;;;;;5097035;28;20651;-53
2021/06/23 00:38:29;;;;;;;12.70;11.40;;;18.70;99.90;;;;;;5097625;28;20473;-55
2021/06/23 00:40:56;;;;;;;11.40;10.20;;;18.80;99.90;;;;;;5095178;28;20439;-54
2021/06/23 00:43:25;;;;;;;13.63;12.23;;;18.80;99.90;;;;;;5096329;28;20417;-54
2021/06/23 00:45:52;;;;;;;20.70;11.90;;;19.00;99.90;;;;;;5092560;28;20682;-55
2021/06/23 00:48:27;;;;;;;11.90;10.70;;;18.90;99.90;;;;;;5096252;28;20431;-52
2021/06/23 00:50:59;;;;;;;13.47;11.83;;;18.90;99.90;;;;;;5097020;28;20434;-56
2021/06/23 00:53:26;;;;;;;15.03;11.17;;;18.80;99.90;;;;;;5097600;28;20746;-57
2021/06/23 00:55:55;;;;;;;12.93;11.63;;;18.90;99.90;;;;;;5095009;28;20423;-55
2021/06/23 00:58:24;;;;;;;12.70;11.57;;;18.90;99.90;;;;;;5095373;28;20481;-56
2021/06/23 01:00:55;;;;;;;13.00;11.50;;;18.90;99.90;;;;;;5095417;28;20413;-56
2021/06/23 01:03:25;;;;;;;14.13;12.63;;;18.90;99.90;;;;;;5095796;28;20424;-55
2021/06/23 01:05:53;;;;;;;13.13;11.63;;;19.00;99.90;;;;;;5096449;28;20465;-55
2021/06/23 01:08:22;;;;;;;14.57;12.10;;;18.90;99.90;;;;;;5096008;28;20484;-56
2021/06/23 01:10:49;;;;;;;15.73;12.60;;;18.90;99.90;;;;;;5094438;28;20458;-55
2021/06/23 01:13:32;;;;;;;18.60;13.80;;;19.00;99.90;;;;;;5089450;28;20469;-56
2021/06/23 01:16:03;;;;;;;15.83;13.80;;;19.00;99.90;;;;;;5097031;28;20625;-55
2021/06/23 01:18:33;;;;;;;15.30;13.70;;;18.90;99.90;;;;;;5093984;28;20482;-53
2021/06/23 01:21:01;;;;;;;15.50;13.37;;;18.90;99.90;;;;;;5097394;28;20788;-56
2021/06/23 01:23:28;;;;;;;20.93;13.90;;;18.90;99.90;;;;;;5092914;28;20659;-55
2021/06/23 01:25:55;;;;;;;20.07;14.40;;;18.90;99.90;;;;;;5097062;28;20413;-54
2021/06/23 01:28:23;;;;;;;18.40;14.73;;;18.80;99.90;;;;;;5097137;28;20763;-56
2021/06/23 01:30:50;;;;;;;16.73;15.03;;;18.70;99.90;;;;;;5094446;28;20490;-54
2021/06/23 01:33:17;;;;;;;19.60;17.30;;;18.70;99.90;;;;;;5095700;28;20488;-55
2021/06/23 01:35:46;;;;;;;20.77;15.27;;;18.70;99.90;;;;;;5096703;28;20417;-54
2021/06/23 01:38:14;;;;;;;34.90;14.87;;;18.80;99.90;;;;;;5093836;28;20477;-57
2021/06/23 01:40:42;;;;;;;16.33;14.43;;;18.80;99.90;;;;;;5096225;28;20442;-55
2021/06/23 01:43:11;;;;;;;15.27;13.67;;;18.90;99.90;;;;;;5093395;28;20466;-54
2021/06/23 01:45:39;;;;;;;15.63;12.63;;;18.80;99.90;;;;;;5093136;28;20445;-53
2021/06/23 01:48:07;;;;;;;15.57;13.03;;;18.70;99.90;;;;;;5091201;28;20489;-51
2021/06/23 01:50:34;;;;;;;18.97;15.00;;;18.70;99.90;;;;;;5094198;28;20491;-57
2021/06/23 01:53:01;;;;;;;23.80;16.70;;;18.60;99.90;;;;;;5095893;28;20416;-55
2021/06/23 01:55:29;;;;;;;18.43;15.80;;;18.60;99.90;;;;;;5091438;28;20466;-54
2021/06/23 01:58:01;;;;;;;19.90;15.30;;;18.50;99.90;;;;;;5094114;28;20687;-54
2021/06/23 02:00:52;;;;;;;18.90;15.97;;;18.50;99.90;;;;;;5093999;28;20447;-55
2021/06/23 02:03:43;;;;;;;17.20;14.80;;;18.50;99.90;;;;;;5089944;28;20547;-55
2021/06/23 02:06:41;;;;;;;19.37;16.07;;;18.40;99.90;;;;;;5094438;28;20446;-55
2021/06/23 02:09:34;;;;;;;21.13;13.93;;;18.50;99.90;;;;;;5095075;28;20442;-53
2021/06/23 02:12:21;;;;;;;16.47;14.73;;;18.50;99.90;;;;;;5095936;28;20470;-54
2021/06/23 02:14:59;;;;;;;20.63;14.87;;;18.50;99.90;;;;;;5096057;28;20463;-55
2021/06/23 02:17:29;;;;;;;15.40;13.17;;;18.50;99.90;;;;;;5094804;28;20465;-52
2021/06/23 02:19:58;;;;;;;15.80;13.90;;;18.50;99.90;;;;;;5094929;28;20433;-54
2021/06/23 02:22:27;;;;;;;17.70;13.83;;;18.50;99.90;;;;;;5092140;28;20502;-55
2021/06/23 02:25:02;;;;;;;14.70;12.83;;;18.40;99.90;;;;;;5095341;28;20441;-55
2021/06/23 02:27:29;;;;;;;13.63;12.27;;;18.40;99.90;;;;;;5094215;28;20408;-55
2021/06/23 02:29:57;;;;;;;13.67;11.77;;;17.70;99.90;;;;;;5095982;28;20472;-52
2021/06/23 02:32:29;;;;;;;14.93;13.33;;;18.30;99.90;;;;;;5093385;28;20872;-56
2021/06/23 02:35:00;;;;;;;19.33;13.47;;;18.30;99.90;;;;;;5095356;28;20421;-57
2021/06/23 02:37:28;;;;;;;16.40;13.13;;;18.30;99.90;;;;;;5095544;28;20712;-56
2021/06/23 02:39:56;;;;;;;17.27;12.80;;;18.30;99.90;;;;;;5093175;28;20489;-56
2021/06/23 02:42:24;;;;;;;15.00;12.43;;;18.40;99.90;;;;;;5094315;28;20450;-55
2021/06/23 02:44:51;;;;;;;17.07;14.13;;;18.50;99.90;;;;;;5093780;28;20413;-55
2021/06/23 02:47:19;;;;;;;17.63;13.00;;;18.50;99.90;;;;;;5094359;28;20416;-56
2021/06/23 02:49:47;;;;;;;14.33;12.93;;;18.50;99.90;;;;;;5094268;28;20453;-54
2021/06/23 02:52:16;;;;;;;15.30;13.70;;;18.40;99.90;;;;;;5095860;28;20435;-56
2021/06/23 02:54:45;;;;;;;18.90;11.77;;;18.20;99.90;;;;;;5091325;28;20443;-56
2021/06/23 02:57:12;;;;;;;12.63;11.40;;;18.60;99.90;;;;;;5093523;28;20476;-54
2021/06/23 02:59:41;;;;;;;12.37;11.10;;;18.10;99.90;;;;;;5093902;28;20480;-58
2021/06/23 03:02:08;;;;;;;12.70;10.80;;;18.00;99.90;;;;;;5094153;28;20496;-55
2021/06/23 03:04:35;;;;;;;13.43;10.57;;;18.10;99.90;;;;;;5093178;28;20784;-56
2021/06/23 03:07:09;;;;;;;12.87;11.47;;;18.10;99.90;;;;;;5095462;28;20449;-55
2021/06/23 03:09:36;;;;;;;15.13;12.30;;;18.20;99.90;;;;;;5094602;28;20493;-55
2021/06/23 03:12:05;;;;;;;12.63;11.60;;;18.10;99.90;;;;;;5092740;28;20453;-56
2021/06/23 03:14:32;;;;;;;13.50;9.10;;;18.10;99.90;;;;;;5091995;28;20421;-55
2021/06/23 03:16:59;;;;;;;12.77;11.37;;;18.50;99.90;;;;;;5093499;28;20499;-56
2021/06/23 03:19:26;;;;;;;14.07;11.40;;;18.20;99.90;;;;;;5094132;28;20463;-56
2021/06/23 03:21:53;;;;;;;12.83;11.50;;;18.20;99.90;;;;;;5091626;28;20441;-56
2021/06/23 03:24:21;;;;;;;13.83;10.20;;;18.20;99.90;;;;;;5093476;28;20432;-53
2021/06/23 03:26:48;;;;;;;11.77;10.57;;;18.20;99.90;;;;;;5090799;28;20417;-55
2021/06/23 03:29:28;;;;;;;13.20;11.90;;;18.30;99.90;;;;;;5093609;28;20417;-55
2021/06/23 03:31:56;;;;;;;12.30;11.13;;;18.30;99.90;;;;;;5090605;28;20409;-55
2021/06/23 03:34:24;;;;;;;11.20;10.20;;;18.30;99.90;;;;;;5097725;28;20463;-56
2021/06/23 03:36:51;;;;;;;13.33;11.67;;;18.20;99.90;;;;;;5097255;28;20457;-55
2021/06/23 03:39:18;;;;;;;12.10;10.27;;;18.20;99.90;;;;;;5095904;28;20456;-55
2021/06/23 03:41:46;;;;;;;10.73;9.63;;;18.30;99.90;;;;;;5098399;28;20420;-53
2021/06/23 03:44:13;;;;;;;9.73;8.80;;;18.20;99.90;;;;;;5096562;28;20495;-53
2021/06/23 03:46:40;;;;;;;12.77;11.67;;;18.20;99.90;;;;;;5094379;28;20481;-57
2021/06/23 03:49:07;;;;;;;13.43;10.60;;;18.20;99.90;;;;;;5099119;28;20449;-54
2021/06/23 03:51:34;;;;;;;17.40;9.90;;;18.20;99.90;;;;;;5096342;28;20424;-54
2021/06/23 03:54:02;;;;;;;10.77;9.77;;;18.20;99.90;;;;;;5098849;28;20811;-55
2021/06/23 03:56:29;;;;;;;11.60;10.40;;;18.30;99.90;;;;;;5098691;28;20476;-55
2021/06/23 03:58:56;;;;;;;12.17;10.87;;;18.20;99.90;;;;;;5099931;28;20725;-54
2021/06/23 04:01:23;;;;;;;11.80;8.67;;;18.10;99.90;;;;;;5098255;28;20500;-54
2021/06/23 04:03:51;;;;;;;13.30;10.20;;;18.30;99.90;;;;;;5094003;28;20406;-56
2021/06/23 04:06:18;;;;;;;11.40;8.80;;;18.40;99.90;;;;;;5097012;28;20513;-55
2021/06/23 04:08:45;;;;;;;12.87;10.00;;;18.40;99.90;;;;;;5094159;28;20739;-52
2021/06/23 04:11:12;;;;;;;11.63;9.10;;;18.40;99.90;;;;;;5097456;28;20416;-52
2021/06/23 04:13:39;;;;;;;11.57;9.23;;;18.40;99.90;;;;;;5094442;28;20462;-57
2021/06/23 04:16:06;;;;;;;13.80;10.37;;;18.20;99.90;;;;;;5096038;28;20756;-53
2021/06/23 04:18:35;;;;;;;10.70;9.57;;;18.40;99.90;;;;;;5095732;28;20509;-55
2021/06/23 04:21:04;;;;;;;9.90;8.90;;;18.40;99.90;;;;;;5095215;28;20458;-54
2021/06/23 04:23:31;;;;;;;12.27;10.00;;;18.40;99.90;;;;;;5094944;28;20851;-55
2021/06/23 04:25:58;;;;;;;15.77;9.30;;;18.50;99.90;;;;;;5097421;28;20406;-54
2021/06/23 04:28:25;;;;;;;13.13;11.00;;;18.70;99.90;;;;;;5097391;28;20421;-59
2021/06/23 04:30:52;;;;;;;12.33;10.43;;;18.90;99.90;;;;;;5096852;28;20463;-55
2021/06/23 04:33:19;;;;;;;15.73;11.23;;;19.10;99.90;;;;;;5095943;28;20439;-52
2021/06/23 04:35:49;;;;;;;11.37;10.23;;;19.10;99.90;;;;;;5096493;28;20880;-54
2021/06/23 04:38:16;;;;;;;10.23;8.23;;;19.00;99.90;;;;;;5095940;28;20777;-56
2021/06/23 04:40:44;;;;;;;13.30;10.87;;;19.00;99.90;;;;;;5097436;28;20755;-56
2021/06/23 04:43:11;;;;;;;11.23;10.23;;;19.30;99.90;;;;;;5096767;28;20583;-52
2021/06/23 04:45:38;;;;;;;12.80;10.10;;;19.40;99.90;;;;;;5097103;28;20419;-56
2021/06/23 04:48:06;;;;;;;9.77;8.77;;;19.30;99.90;;;;;;5096521;28;20447;-52
2021/06/23 04:50:34;;;;;;;12.43;9.03;;;19.30;99.90;;;;;;5096657;28;20506;-54
2021/06/23 04:53:01;;;;;;;11.70;9.53;;;19.60;99.90;;;;;;5093489;28;20487;-55
2021/06/23 04:55:28;;;;;;;14.70;12.03;;;19.50;99.90;;;;;;5096023;28;20489;-56
2021/06/23 04:57:55;;;;;;;10.20;9.20;;;20.30;99.90;;;;;;5097726;28;20776;-49
2021/06/23 05:00:22;;;;;;;13.80;9.23;;;19.70;99.90;;;;;;5094925;28;20525;-57
2021/06/23 05:02:50;;;;;;;10.07;8.80;;;19.60;99.90;;;;;;5095840;28;20702;-51
2021/06/23 05:05:17;;;;;;;16.10;9.80;;;19.50;99.90;;;;;;5095150;28;20488;-55
2021/06/23 05:07:44;;;;;;;10.70;9.90;;;18.50;99.90;;;;;;5095420;28;20413;-54
2021/06/23 05:10:11;;;;;;;15.80;10.13;;;19.70;99.90;;;;;;5095587;28;20455;-57
2021/06/23 05:12:38;;;;;;;13.73;10.83;;;19.70;99.90;;;;;;5097047;28;20655;-55
2021/06/23 05:15:06;;;;;;;16.30;10.43;;;19.70;99.90;;;;;;5096672;28;20752;-54
2021/06/23 05:17:34;;;;;;;13.27;10.07;;;19.60;99.90;;;;;;5095066;28;20957;-56
2021/06/23 05:20:01;;;;;;;14.13;9.97;;;19.50;99.90;;;;;;5090843;28;20529;-54
2021/06/23 05:22:28;;;;;;;11.57;10.30;;;19.50;99.90;;;;;;5096822;28;20500;-56
2021/06/23 05:24:57;;;;;;;11.83;9.20;;;19.50;99.90;;;;;;5094270;28;20423;-55
2021/06/23 05:27:24;;;;;;;15.33;11.47;;;19.50;99.90;;;;;;5095814;28;20638;-54
2021/06/23 05:29:56;;;;;;;10.23;9.23;;;19.50;99.90;;;;;;5095831;28;20510;-56
2021/06/23 05:32:23;;;;;;;9.90;9.00;;;19.60;99.90;;;;;;5094970;28;20741;-55
2021/06/23 05:34:50;;;;;;;13.20;11.37;;;19.70;99.90;;;;;;5094698;28;20938;-55
2021/06/23 05:37:17;;;;;;;11.63;9.53;;;19.70;99.90;;;;;;5096596;28;20445;-55
2021/06/23 05:39:44;;;;;;;12.53;10.30;;;19.60;99.90;;;;;;5094533;28;20471;-56
2021/06/23 05:42:11;;;;;;;19.20;12.10;;;19.70;99.90;;;;;;5093803;28;20450;-55
2021/06/23 05:44:38;;;;;;;14.60;10.20;;;19.60;99.90;;;;;;5095785;28;20422;-55
2021/06/23 05:47:05;;;;;;;16.33;12.13;;;19.60;99.90;;;;;;5091762;28;20449;-56
2021/06/23 05:49:32;;;;;;;12.33;10.33;;;19.80;99.90;;;;;;5094363;28;20455;-54
2021/06/23 05:51:59;;;;;;;12.40;10.50;;;20.00;99.90;;;;;;5094709;28;20410;-54
2021/06/23 05:54:26;;;;;;;11.90;10.30;;;20.00;99.90;;;;;;5091754;28;20495;-52
2021/06/23 05:56:53;;;;;;;11.03;9.93;;;19.80;99.90;;;;;;5066406;28;20768;-55
2021/06/23 05:59:20;;;;;;;9.87;8.97;;;19.90;99.90;;;;;;5095410;28;20453;-58
2021/06/23 06:01:48;;;;;;;10.90;9.90;;;20.00;99.90;;;;;;5093142;28;20522;-55
2021/06/23 06:04:15;;;;;;;11.67;9.90;;;20.00;99.90;;;;;;5096565;28;20530;-55
2021/06/23 06:06:43;;;;;;;10.57;9.60;;;20.00;99.90;;;;;;5094182;28;20433;-57
2021/06/23 06:09:10;;;;;;;12.40;9.50;;;19.90;99.90;;;;;;5095095;28;20405;-54
2021/06/23 06:11:38;;;;;;;9.67;8.73;;;20.00;99.90;;;;;;5096256;28;20446;-53
2021/06/23 06:14:08;;;;;;;13.87;9.77;;;20.10;99.90;;;;;;5096802;28;20728;-54
2021/06/23 06:16:39;;;;;;;13.17;9.20;;;20.20;99.90;;;;;;5094353;28;20419;-56
2021/06/23 06:19:06;;;;;;;11.60;9.37;;;20.60;99.90;;;;;;5096423;28;20509;-54
2021/06/23 06:21:34;;;;;;;9.50;8.50;;;20.50;99.90;;;;;;5094137;28;20413;-54
2021/06/23 06:24:03;;;;;;;10.40;9.50;;;20.50;99.90;;;;;;5055731;28;20439;-53
2021/06/23 06:26:37;;;;;;;18.77;9.03;;;20.40;99.90;;;;;;5056544;28;20432;-56
2021/06/23 06:29:09;;;;;;;11.23;10.13;;;20.60;99.90;;;;;;5056673;28;20440;-53
2021/06/23 06:31:36;;;;;;;11.90;9.10;;;20.50;99.90;;;;;;5049912;28;20468;-56
2021/06/23 06:34:03;;;;;;;10.60;9.50;;;20.20;99.90;;;;;;5054589;28;20790;-53
2021/06/23 06:36:31;;;;;;;10.00;8.90;;;20.00;99.90;;;;;;5052475;28;20742;-55
2021/06/23 06:38:58;;;;;;;9.60;8.67;;;20.30;99.90;;;;;;5071602;28;20511;-55
2021/06/23 06:41:25;;;;;;;10.47;9.60;;;20.80;99.90;;;;;;5049966;28;20419;-54
2021/06/23 06:43:52;;;;;;;11.00;8.90;;;21.10;99.90;;;;;;5049286;28;20427;-55
2021/06/23 06:46:19;;;;;;;9.60;8.70;;;21.30;99.90;;;;;;5052627;28;20496;-55
2021/06/23 06:48:46;;;;;;;14.60;10.30;;;21.30;99.90;;;;;;5052876;28;20445;-56
2021/06/23 06:51:14;;;;;;;17.23;10.30;;;21.20;99.90;;;;;;5056950;28;20735;-56
2021/06/23 06:53:41;;;;;;;11.87;10.20;;;21.00;99.90;;;;;;5051302;28;20516;-53
2021/06/23 06:56:09;;;;;;;12.90;10.80;;;20.80;99.90;;;;;;5052369;28;20415;-55
2021/06/23 06:58:40;;;;;;;20.70;12.13;;;20.60;99.90;;;;;;5056920;28;20723;-53
2021/06/23 07:01:08;;;;;;;14.60;11.50;;;20.30;99.90;;;;;;5051043;28;20440;-53
2021/06/23 07:03:35;;;;;;;12.07;11.00;;;20.30;99.90;;;;;;5055755;28;20419;-56
2021/06/23 07:06:02;;;;;;;11.40;10.10;;;20.20;99.90;;;;;;5052156;28;20428;-55
2021/06/23 07:08:29;;;;;;;13.90;10.30;;;20.30;99.90;;;;;;5051165;28;20451;-56
2021/06/23 07:10:56;;;;;;;13.40;10.80;;;20.30;99.90;;;;;;5055367;28;20440;-53
2021/06/23 07:13:23;;;;;;;16.27;9.50;;;20.30;99.90;;;;;;5050768;28;20416;-56
2021/06/23 07:15:50;;;;;;;17.83;11.30;;;20.30;99.90;;;;;;5050126;28;20409;-53
2021/06/23 07:18:17;;;;;;;17.60;10.80;;;20.10;99.90;;;;;;5050831;28;20446;-56
2021/06/23 07:20:44;;;;;;;16.87;11.90;;;20.30;99.90;;;;;;5049370;28;20509;-54
2021/06/23 07:23:16;;;;;;;13.60;11.00;;;20.60;99.90;;;;;;5083962;28;20522;-55
2021/06/23 07:25:46;;;;;;;12.10;10.93;;;20.90;99.90;;;;;;5096933;28;20497;-52
2021/06/23 07:28:16;;;;;;;11.90;9.73;;;21.10;99.90;;;;;;5094523;28;20429;-52
2021/06/23 07:30:46;;;;;;;11.80;10.80;;;21.30;99.90;;;;;;5090495;28;20839;-52
2021/06/23 07:33:14;;;;;;;15.53;10.73;;;21.60;99.90;;;;;;5087956;28;20435;-54
2021/06/23 07:38:27;;;;;;;11.90;10.63;;;21.60;99.90;;;;;;5097027;28;20473;-53
2021/06/23 07:41:06;;;;;;;12.73;10.60;;;21.60;99.90;;;;;;5097350;28;20837;-53
2021/06/23 07:43:33;;;;;;;12.17;10.73;;;21.70;99.90;;;;;;5095182;28;20422;-54
2021/06/23 07:46:02;;;;;;;11.60;10.23;;;21.80;99.90;;;;;;5093652;28;20489;-56
2021/06/23 07:48:51;;;;;;;15.17;10.80;;;21.80;99.90;;;;;;5092729;28;20439;-56
2021/06/23 07:51:27;;;;;;;12.07;11.00;;;21.70;99.90;;;;;;5098876;28;20439;-57
2021/06/23 08:10:41;;;;;;;15.50;9.50;;;21.50;99.90;;;;;;5096771;28;20758;-53
2021/06/23 08:13:06;;;;;;;11.53;10.50;;;21.50;99.90;;;;;;5093803;28;20410;-56
2021/06/23 08:15:36;;;;;;;11.23;10.13;;;21.60;99.90;;;;;;5096603;28;20445;-55
2021/06/23 08:18:04;;;;;;;10.80;9.53;;;21.70;99.90;;;;;;5094313;28;20443;-56
2021/06/23 08:20:33;;;;;;;13.43;9.03;;;21.90;99.90;;;;;;5095166;28;20480;-53
2021/06/23 08:23:00;;;;;;;11.10;8.83;;;22.30;99.90;;;;;;5089672;28;20446;-55
2021/06/23 08:25:28;;;;;;;11.77;8.30;;;22.50;99.90;;;;;;5091912;28;20426;-55
2021/06/23 08:27:57;;;;;;;11.17;8.03;;;22.60;99.90;;;;;;5091921;28;20495;-55
2021/06/23 08:30:25;;;;;;;14.57;8.90;;;22.80;99.90;;;;;;5092187;28;20424;-56
2021/06/23 08:32:57;;;;;;;8.77;8.03;;;23.20;99.90;;;;;;5090305;28;20645;-54
2021/06/23 08:35:29;;;;;;;9.20;8.30;;;24.00;99.90;;;;;;5088640;28;20446;-54
2021/06/23 08:37:56;;;;;;;8.00;7.20;;;25.80;99.90;;;;;;5096656;28;20727;-54
2021/06/23 08:40:24;;;;;;;10.10;8.70;;;26.60;99.90;;;;;;5093809;28;20483;-54
2021/06/23 08:42:52;;;;;;;8.70;8.00;;;27.90;99.00;;;;;;5088956;28;20443;-54
2021/06/23 08:45:19;;;;;;;9.70;9.00;;;28.50;97.40;;;;;;5126259;27;20458;-52
2021/06/23 08:47:48;;;;;;;9.23;8.53;;;28.30;96.70;;;;;;5090287;28;20718;-55
2021/06/23 08:50:22;;;;;;;14.10;9.30;;;27.90;97.70;;;;;;5090094;28;20418;-54
2021/06/23 08:52:51;;;;;;;10.03;9.07;;;26.70;99.00;;;;;;5092138;28;20443;-54
2021/06/23 08:55:20;;;;;;;10.00;9.00;;;26.30;99.90;;;;;;5091684;28;20421;-54
2021/06/23 08:57:49;;;;;;;9.77;8.87;;;26.50;99.90;;;;;;5096667;28;20418;-55
2021/06/23 09:00:19;;;;;;;12.90;8.10;;;27.30;98.70;;;;;;5109937;28;20565;-54
2021/06/23 09:02:47;;;;;;;10.60;9.13;;;27.40;98.60;;;;;;5096958;28;20514;-54
2021/06/23 09:05:17;;;;;;;9.60;8.80;;;27.10;99.40;;;;;;5089439;28;20501;-54
2021/06/23 09:07:53;;;;;;;11.33;10.17;;;26.20;99.70;;;;;;5090891;28;20443;-54
2021/06/23 09:10:21;;;;;;;10.00;9.10;;;24.90;99.90;;;;;;5084092;28;20490;-53
2021/06/23 09:13:09;;;;;;;10.67;9.67;;;23.90;99.90;;;;;;5093115;28;20512;-58
2021/06/23 09:15:45;;;;;;;11.23;9.13;;;23.20;99.90;;;;;;5077308;28;20498;-54
2021/06/23 09:18:19;;;;;;;11.23;10.13;;;23.00;99.90;;;;;;5088175;28;20418;-54
2021/06/23 09:20:48;;;;;;;9.80;8.80;;;22.80;99.90;;;;;;5096255;28;20484;-54
2021/06/23 09:23:16;;;;;;;8.70;7.90;;;22.60;99.90;;;;;;5079985;28;20482;-55
2021/06/23 09:25:46;;;;;;;12.00;8.70;;;22.70;99.90;;;;;;5084870;28;20423;-54
2021/06/23 09:28:19;;;;;;;9.93;8.23;;;22.50;99.90;;;;;;5083051;28;20471;-54
2021/06/23 09:30:47;;;;;;;9.87;8.83;;;22.40;99.90;;;;;;5095639;28;20462;-52
2021/06/23 09:33:26;;;;;;;8.53;6.80;;;22.50;99.90;;;;;;5087199;28;20500;-54
2021/06/23 09:35:59;;;;;;;12.70;7.80;;;22.70;99.90;;;;;;5084956;28;20490;-54
2021/06/23 09:38:49;;;;;;;11.07;7.07;;;22.70;99.90;;;;;;5093885;28;20450;-55
2021/06/23 09:41:24;;;;;;;14.60;7.30;;;22.30;99.90;;;;;;5095199;28;20819;-54
2021/06/23 09:44:05;;;;;;;7.77;7.07;;;21.90;99.90;;;;;;5090468;28;20603;-56
2021/06/23 09:46:37;;;;;;;9.50;8.80;;;21.90;99.90;;;;;;5093900;28;20586;-55
2021/06/23 09:49:15;;;;;;;9.07;7.93;;;22.10;99.90;;;;;;5089981;28;20473;-54
2021/06/23 09:51:45;;;;;;;7.70;7.00;;;22.70;99.90;;;;;;5090979;28;20510;-56
2021/06/23 09:54:16;;;;;;;9.43;8.53;;;22.70;99.90;;;;;;5091763;28;20625;-55
2021/06/23 09:57:17;;;;;;;9.30;7.43;;;22.70;99.90;;;;;;5091356;28;20444;-53
2021/06/23 09:59:50;;;;;;;9.87;7.17;;;22.80;99.90;;;;;;5106772;28;20441;-55
2021/06/23 10:02:35;;;;;;;7.43;6.50;;;22.60;99.90;;;;;;5084904;28;20495;-55
2021/06/23 10:05:25;;;;;;;8.13;7.43;;;22.60;99.90;;;;;;5089972;28;20401;-54
2021/06/23 10:07:57;;;;;;;8.27;6.90;;;22.60;99.90;;;;;;5074729;28;20512;-55
2021/06/23 10:10:43;;;;;;;11.47;7.13;;;23.00;99.90;;;;;;5075384;28;20472;-56
2021/06/23 10:13:10;;;;;;;7.37;6.67;;;23.20;99.90;;;;;;5084148;28;20412;-54
2021/06/23 10:15:38;;;;;;;7.90;7.10;;;22.30;99.90;;;;;;5096329;28;20816;-54
2021/06/23 10:18:06;;;;;;;8.53;7.60;;;23.10;99.90;;;;;;5095867;28;20469;-56
2021/06/23 10:20:34;;;;;;;9.10;7.30;;;23.20;99.90;;;;;;5082171;28;20576;-56
2021/06/23 10:23:04;;;;;;;8.47;7.70;;;23.80;99.90;;;;;;5082867;28;20480;-51
2021/06/23 10:25:31;;;;;;;8.63;7.63;;;24.30;99.90;;;;;;5088924;28;20443;-52
2021/06/23 10:27:59;;;;;;;8.30;7.60;;;24.20;99.90;;;;;;5079139;28;20563;-56
2021/06/23 10:30:34;;;;;;;9.30;8.33;;;24.40;99.90;;;;;;5090365;28;20526;-53
2021/06/23 10:33:04;;;;;;;8.53;6.73;;;24.50;99.90;;;;;;5084772;28;20407;-55
2021/06/23 10:35:31;;;;;;;8.87;7.13;;;24.10;99.90;;;;;;5093999;28;20425;-54
2021/06/23 10:38:01;;;;;;;9.97;9.17;;;23.80;99.90;;;;;;5090652;28;20454;-54
2021/06/23 10:40:30;;;;;;;9.53;8.10;;;23.70;99.90;;;;;;5094728;28;20640;-55
2021/06/23 10:43:14;;;;;;;13.33;8.37;;;23.90;99.90;;;;;;5092912;28;20422;-51
2021/06/23 10:45:45;;;;;;;7.10;6.50;;;24.40;99.90;;;;;;5093307;28;20502;-52
2021/06/23 10:48:13;;;;;;;8.30;7.60;;;25.10;99.90;;;;;;5097305;28;20641;-55
2021/06/23 10:50:41;;;;;;;8.70;7.70;;;25.50;99.90;;;;;;5091672;28;20466;-54
2021/06/23 10:53:34;;;;;;;9.50;8.60;;;25.40;99.90;;;;;;5095185;28;20447;-53
2021/06/23 10:56:05;;;;;;;8.50;7.77;;;25.70;99.90;;;;;;5093021;28;20412;-55
2021/06/23 10:58:36;;;;;;;9.47;8.57;;;25.60;99.90;;;;;;5097452;28;20751;-55
2021/06/23 11:01:12;;;;;;;8.60;7.17;;;25.10;99.90;;;;;;5097828;28;20507;-54
2021/06/23 11:04:04;;;;;;;10.33;8.70;;;24.50;99.90;;;;;;5087553;28;20410;-54
2021/06/23 11:06:42;;;;;;;8.30;7.60;;;24.70;99.90;;;;;;5085851;28;20429;-54
2021/06/23 11:09:23;;;;;;;9.60;8.50;;;24.80;99.90;;;;;;5084861;28;20439;-54
2021/06/23 11:11:51;;;;;;;8.63;7.00;;;24.70;99.90;;;;;;5098474;28;20416;-52
2021/06/23 11:14:21;;;;;;;8.90;7.80;;;24.90;99.90;;;;;;5086847;28;20425;-53
2021/06/23 11:16:50;;;;;;;9.50;8.60;;;24.80;99.90;;;;;;5091085;28;20481;-51
2021/06/23 11:19:17;;;;;;;10.33;7.37;;;24.60;99.90;;;;;;5101401;28;20428;-52
2021/06/23 11:22:22;;;;;;;7.57;6.97;;;24.60;99.90;;;;;;5099821;28;21031;-54
2021/06/23 11:25:18;;;;;;;7.27;6.67;;;24.80;99.90;;;;;;5099192;28;20801;-53
2021/06/23 11:28:12;;;;;;;7.57;6.87;;;23.90;99.90;;;;;;5079771;28;20443;-54
2021/06/23 11:30:55;;;;;;;10.93;6.83;;;24.20;99.90;;;;;;5075034;28;20430;-54
2021/06/23 11:33:29;;;;;;;7.20;6.33;;;24.30;99.90;;;;;;5093976;28;20465;-51
2021/06/23 11:35:58;;;;;;;9.07;6.70;;;24.20;99.90;;;;;;5095253;28;20437;-54
2021/06/23 11:38:26;;;;;;;9.07;7.00;;;24.10;99.90;;;;;;5097943;28;20463;-51
2021/06/23 11:40:55;;;;;;;6.60;6.00;;;24.60;99.90;;;;;;5094407;28;20647;-52
2021/06/23 11:43:23;;;;;;;6.80;6.03;;;25.00;99.90;;;;;;5094886;28;20438;-53
2021/06/23 11:45:54;;;;;;;6.63;6.13;;;24.90;99.90;;;;;;5085748;28;20475;-57
2021/06/23 11:48:29;;;;;;;7.43;6.90;;;25.30;99.90;;;;;;5089954;28;20455;-53
2021/06/23 11:51:00;;;;;;;7.30;6.70;;;25.70;99.90;;;;;;5098709;28;20521;-51
2021/06/23 11:53:30;;;;;;;8.07;6.80;;;26.40;99.90;;;;;;5094009;28;20495;-51
2021/06/23 11:55:57;;;;;;;6.83;6.30;;;27.00;99.20;;;;;;5098396;28;20629;-52
2021/06/23 11:58:24;;;;;;;7.67;6.90;;;26.10;99.60;;;;;;5109831;28;20475;-52
2021/06/23 12:00:52;;;;;;;6.50;5.90;;;26.10;99.80;;;;;;5098459;28;20521;-54
2021/06/23 12:03:19;;;;;;;7.07;6.57;;;25.70;99.90;;;;;;5098115;28;20439;-53
2021/06/23 12:05:47;;;;;;;7.23;6.60;;;25.70;99.90;;;;;;5099243;28;20417;-52
2021/06/23 12:08:15;;;;;;;7.83;7.20;;;25.80;99.90;;;;;;5097663;28;20503;-54
2021/06/23 12:10:44;;;;;;;9.40;8.60;;;26.10;99.90;;;;;;5096325;28;20680;-54
2021/06/23 12:13:13;;;;;;;6.90;6.40;;;27.00;99.20;;;;;;5090817;28;20867;-52
2021/06/23 12:15:41;;;;;;;7.17;6.57;;;27.00;98.30;;;;;;5094410;28;20697;-53
2021/06/23 12:18:09;;;;;;;7.97;7.20;;;26.00;99.70;;;;;;5094459;28;20414;-54
2021/06/23 12:20:41;;;;;;;7.20;6.60;;;25.10;99.90;;;;;;5084638;28;20463;-52
2021/06/23 12:23:11;;;;;;;7.17;6.60;;;24.90;99.90;;;;;;5093742;28;20479;-53
2021/06/23 12:25:43;;;;;;;8.17;7.57;;;24.70;99.90;;;;;;5099265;28;20511;-52
2021/06/23 12:28:12;;;;;;;8.13;7.43;;;24.20;99.90;;;;;;5100285;28;20618;-52
2021/06/23 12:30:42;;;;;;;9.27;7.87;;;24.20;99.90;;;;;;5090799;28;20521;-52
2021/06/23 12:33:11;;;;;;;7.13;5.97;;;23.90;99.90;;;;;;5093111;28;20414;-52
2021/06/23 12:36:04;;;;;;;8.00;6.77;;;24.40;99.90;;;;;;5097021;28;20700;-52
2021/06/23 12:38:44;;;;;;;9.60;7.90;;;25.00;99.90;;;;;;5092609;28;20458;-52
2021/06/23 12:41:25;;;;;;;8.17;7.60;;;25.40;99.90;;;;;;5089481;28;20687;-53
2021/06/23 12:43:53;;;;;;;8.07;7.47;;;25.50;99.90;;;;;;5093403;28;20702;-52
2021/06/23 12:46:21;;;;;;;7.73;7.10;;;25.70;99.90;;;;;;5091822;28;20520;-57
2021/06/23 12:48:53;;;;;;;8.93;8.03;;;26.00;99.90;;;;;;5094126;28;20413;-57
2021/06/23 12:51:20;;;;;;;6.30;5.90;;;25.90;99.90;;;;;;5094503;28;20422;-52
2021/06/23 12:53:51;;;;;;;7.47;6.97;;;26.00;99.90;;;;;;5095307;28;20769;-53
2021/06/23 12:56:19;;;;;;;8.63;7.30;;;25.90;99.90;;;;;;5097550;28;20410;-55
2021/06/23 12:58:46;;;;;;;7.67;7.00;;;25.60;99.90;;;;;;5101396;28;20606;-52
2021/06/23 13:01:14;;;;;;;8.10;7.50;;;25.70;99.90;;;;;;5095932;28;20453;-52
2021/06/23 13:03:42;;;;;;;8.33;7.47;;;25.70;99.90;;;;;;5085623;28;20730;-52
2021/06/23 13:06:10;;;;;;;10.53;8.00;;;25.50;99.90;;;;;;5087569;28;20519;-55
2021/06/23 13:08:37;;;;;;;7.63;6.93;;;25.00;99.90;;;;;;5091415;28;20443;-56
2021/06/23 13:11:05;;;;;;;9.07;8.20;;;25.00;99.90;;;;;;5078838;28;20619;-56